createdAt,value
2024-04-22T00:00:48.865Z,3.10
2024-04-22T00:03:15.813Z,3.38
2024-04-22T00:05:42.741Z,3.35
2024-04-22T00:08:09.689Z,2.85
2024-04-22T00:10:36.613Z,3.28
2024-04-22T00:13:03.696Z,2.92
2024-04-22T00:15:30.629Z,2.92
2024-04-22T00:17:57.622Z,3.17
2024-04-22T00:20:24.518Z,5.32
2024-04-22T00:22:51.431Z,6.35
2024-04-22T00:25:18.440Z,4.18
2024-04-22T00:27:45.394Z,2.85
2024-04-22T00:30:12.362Z,2.47
2024-04-22T00:32:39.318Z,3.03
2024-04-22T00:35:06.449Z,3.22
2024-04-22T00:37:33.386Z,3.75
2024-04-22T00:40:00.414Z,3.00
2024-04-22T00:42:27.392Z,3.53
2024-04-22T00:44:54.288Z,2.50
2024-04-22T00:47:21.410Z,2.80
2024-04-22T00:49:49.394Z,2.97
2024-04-22T00:52:16.387Z,3.08
2024-04-22T00:54:43.452Z,3.25
2024-04-22T00:57:11.911Z,3.58
2024-04-22T00:59:39.307Z,1.95
2024-04-22T01:02:06.824Z,2.97
2024-04-22T01:04:36.582Z,3.60
2024-04-22T01:09:30.553Z,2.83
2024-04-22T01:11:57.493Z,3.80
2024-04-22T01:14:24.750Z,3.20
2024-04-22T01:16:55.904Z,2.97
2024-04-22T01:19:24.104Z,3.03
2024-04-22T01:21:52.136Z,4.18
2024-04-22T01:24:20.328Z,3.53
2024-04-22T01:26:47.995Z,3.88
2024-04-22T01:29:14.981Z,4.00
2024-04-22T01:31:41.899Z,2.95
2024-04-22T01:34:09.057Z,3.08
2024-04-22T01:36:37.788Z,3.25
2024-04-22T01:39:04.844Z,3.78
2024-04-22T01:41:31.786Z,3.70
2024-04-22T01:43:58.792Z,5.15
2024-04-22T01:46:25.823Z,3.67
2024-04-22T01:48:52.832Z,4.20
2024-04-22T01:51:19.745Z,3.78
2024-04-22T01:53:46.719Z,4.97
2024-04-22T01:56:13.631Z,3.55
2024-04-22T01:58:40.583Z,4.30
2024-04-22T02:01:09.236Z,3.42
2024-04-22T02:03:36.254Z,4.28
2024-04-22T02:06:03.255Z,4.53
2024-04-22T02:08:30.182Z,4.20
2024-04-22T02:10:57.279Z,4.25
2024-04-22T02:13:25.737Z,4.15
2024-04-22T02:15:52.713Z,3.72
2024-04-22T02:18:19.696Z,3.17
2024-04-22T02:20:46.707Z,3.70
2024-04-22T02:23:13.763Z,3.42
2024-04-22T02:25:41.169Z,3.40
2024-04-22T02:28:08.204Z,3.42
2024-04-22T02:30:35.251Z,3.67
2024-04-22T02:33:02.226Z,2.78
2024-04-22T02:35:29.240Z,4.05
2024-04-22T02:37:56.105Z,3.13
2024-04-22T02:40:23.071Z,3.20
2024-04-22T02:42:49.995Z,3.60
2024-04-22T02:45:16.965Z,3.88
2024-04-22T02:47:43.918Z,2.72
2024-04-22T02:50:10.943Z,3.40
2024-04-22T02:52:37.931Z,3.50
2024-04-22T02:55:05.067Z,2.72
2024-04-22T02:57:31.983Z,3.20
2024-04-22T02:59:58.984Z,3.25
2024-04-22T03:02:26.012Z,3.40
2024-04-22T03:04:53.040Z,4.28
2024-04-22T03:07:20.144Z,2.67
2024-04-22T03:09:47.044Z,4.07
2024-04-22T03:12:14.663Z,4.82
2024-04-22T03:14:41.824Z,4.15
2024-04-22T03:17:08.809Z,3.47
2024-04-22T03:19:35.890Z,5.13
2024-04-22T03:22:02.995Z,2.92
2024-04-22T03:24:29.961Z,2.92
2024-04-22T03:26:56.875Z,3.75
2024-04-22T03:29:23.793Z,3.45
2024-04-22T03:31:50.789Z,3.75
2024-04-22T03:34:17.822Z,5.28
2024-04-22T03:36:44.744Z,4.57
2024-04-22T03:39:11.702Z,5.55
2024-04-22T03:41:38.651Z,5.03
2024-04-22T03:44:05.628Z,3.35
2024-04-22T03:46:51.720Z,3.40
2024-04-22T03:49:36.908Z,3.55
2024-04-22T03:52:04.648Z,4.82
2024-04-22T03:54:31.699Z,3.95
2024-04-22T03:56:58.713Z,4.30
2024-04-22T03:59:25.641Z,4.18
2024-04-22T04:01:52.655Z,3.95
2024-04-22T04:04:19.781Z,4.72
2024-04-22T04:06:46.774Z,4.53
2024-04-22T04:09:13.732Z,3.95
2024-04-22T04:11:41.354Z,3.95
2024-04-22T04:14:08.900Z,5.22
2024-04-22T04:16:36.087Z,4.93
2024-04-22T04:19:03.937Z,4.93
2024-04-22T04:21:31.102Z,4.10
2024-04-22T04:23:58.018Z,5.10
2024-04-22T04:26:24.947Z,4.15
2024-04-22T04:28:52.075Z,8.77
2024-04-22T04:31:19.919Z,5.63
2024-04-22T04:33:47.090Z,7.38
2024-04-22T04:36:14.030Z,5.90
2024-04-22T04:38:40.943Z,5.88
2024-04-22T04:41:07.853Z,4.90
2024-04-22T04:43:34.868Z,5.57
2024-04-22T04:46:01.801Z,6.07
2024-04-22T04:48:29.588Z,4.75
2024-04-22T04:50:56.540Z,4.32
2024-04-22T04:53:23.543Z,4.47
2024-04-22T04:55:50.679Z,4.93
2024-04-22T04:58:19.542Z,4.25
2024-04-22T05:00:47.588Z,4.18
2024-04-22T05:03:15.130Z,7.50
2024-04-22T05:05:42.093Z,9.75
2024-04-22T05:08:09.098Z,5.97
2024-04-22T05:10:36.218Z,4.43
2024-04-22T05:13:03.282Z,4.45
2024-04-22T05:15:30.306Z,3.97
2024-04-22T05:17:57.274Z,4.82
2024-04-22T05:20:24.239Z,4.72
2024-04-22T05:22:51.211Z,3.47
2024-04-22T05:25:18.172Z,4.47
2024-04-22T05:27:45.110Z,5.40
2024-04-22T05:30:12.270Z,4.70
2024-04-22T05:32:39.537Z,4.45
2024-04-22T05:35:25.188Z,5.32
2024-04-22T05:37:52.190Z,5.03
2024-04-22T05:40:19.210Z,4.13
2024-04-22T05:42:46.191Z,4.57
2024-04-22T05:45:13.145Z,4.63
2024-04-22T05:47:40.185Z,2.72
2024-04-22T05:50:07.509Z,3.63
2024-04-22T05:52:34.522Z,3.33
2024-04-22T05:55:02.277Z,4.00
2024-04-22T05:57:29.242Z,3.58
2024-04-22T05:59:56.380Z,4.47
2024-04-22T06:02:23.342Z,4.28
2024-04-22T06:04:50.363Z,3.50
2024-04-22T06:07:17.376Z,2.80
2024-04-22T06:09:44.302Z,4.88
2024-04-22T06:12:17.808Z,3.72
2024-04-22T06:14:47.104Z,4.35
2024-04-22T06:17:14.273Z,3.88
2024-04-22T06:19:41.544Z,3.08
2024-04-22T06:22:08.683Z,3.75
2024-04-22T06:24:35.621Z,3.20
2024-04-22T06:27:02.595Z,3.08
2024-04-22T06:29:29.529Z,3.17
2024-04-22T06:31:56.583Z,3.38
2024-04-22T06:34:23.605Z,3.15
2024-04-22T06:36:50.546Z,3.20
2024-04-22T06:39:17.810Z,3.92
2024-04-22T06:41:44.898Z,3.90
2024-04-22T06:44:12.066Z,4.15
2024-04-22T06:46:39.578Z,3.60
2024-04-22T06:49:06.878Z,3.35
2024-04-22T06:51:33.795Z,3.38
2024-04-22T06:54:00.714Z,3.70
2024-04-22T06:56:28.392Z,3.60
2024-04-22T06:58:55.506Z,3.50
2024-04-22T07:01:31.005Z,3.53
2024-04-22T07:04:05.563Z,2.30
2024-04-22T07:06:32.836Z,2.95
2024-04-22T07:09:00.047Z,3.42
2024-04-22T07:11:27.107Z,2.38
2024-04-22T07:13:54.165Z,2.83
2024-04-22T07:16:21.849Z,3.05
2024-04-22T07:18:51.899Z,2.60
2024-04-22T07:21:20.898Z,3.00
2024-04-22T07:23:48.223Z,2.67
2024-04-22T07:26:15.147Z,2.78
2024-04-22T07:28:42.766Z,2.65
2024-04-22T07:31:10.116Z,3.00
2024-04-22T07:33:37.594Z,3.78
2024-04-22T07:36:22.662Z,3.30
2024-04-22T07:38:51.354Z,2.88
2024-04-22T07:41:18.569Z,2.97
2024-04-22T07:43:45.589Z,3.35
2024-04-22T07:46:14.210Z,3.13
2024-04-22T07:48:41.202Z,2.85
2024-04-22T07:51:08.137Z,2.72
2024-04-22T07:53:35.291Z,2.50
2024-04-22T07:56:02.600Z,2.60
2024-04-22T07:58:30.078Z,3.58
2024-04-22T08:00:57.324Z,2.75
2024-04-22T08:03:24.546Z,2.38
2024-04-22T08:05:54.540Z,2.50
2024-04-22T08:08:22.889Z,2.10
2024-04-22T08:10:50.568Z,2.97
2024-04-22T08:13:17.549Z,2.42
2024-04-22T08:15:44.484Z,1.90
2024-04-22T08:18:11.921Z,2.42
2024-04-22T08:20:38.865Z,3.17
2024-04-22T08:23:05.831Z,2.90
2024-04-22T08:25:32.724Z,3.10
2024-04-22T08:27:59.752Z,3.28
2024-04-22T08:30:27.820Z,4.03
2024-04-22T08:32:58.319Z,3.67
2024-04-22T08:35:25.350Z,3.13
2024-04-22T08:37:52.307Z,3.50
2024-04-22T08:40:24.757Z,3.05
2024-04-22T08:42:54.464Z,3.10
2024-04-22T08:45:21.476Z,3.50
2024-04-22T08:47:50.593Z,3.97
2024-04-22T08:52:51.645Z,3.65
2024-04-22T08:55:23.588Z,3.33
2024-04-22T08:57:50.949Z,2.88
2024-04-22T09:00:17.937Z,3.35
2024-04-22T09:02:45.239Z,2.88
2024-04-22T09:05:12.383Z,2.50
2024-04-22T09:07:39.500Z,3.03
2024-04-22T09:10:34.696Z,3.05
2024-04-22T09:13:00.693Z,2.67
2024-04-22T09:15:29.186Z,2.83
2024-04-22T09:17:57.033Z,2.85
2024-04-22T09:20:26.803Z,3.30
2024-04-22T09:22:54.003Z,2.40
2024-04-22T09:25:21.224Z,2.90
2024-04-22T09:27:51.889Z,2.00
2024-04-22T09:30:24.949Z,2.75
2024-04-22T09:32:55.367Z,1.88
2024-04-22T09:35:22.915Z,3.28
2024-04-22T09:37:51.519Z,2.40
2024-04-22T09:40:20.349Z,2.40
2024-04-22T09:42:48.934Z,2.50
2024-04-22T09:45:16.952Z,2.60
2024-04-22T09:47:45.254Z,2.60
2024-04-22T09:50:12.692Z,2.60
2024-04-22T09:52:40.870Z,2.28
2024-04-22T09:55:11.086Z,2.60
2024-04-22T09:57:43.064Z,3.05
2024-04-22T10:00:10.739Z,2.08
2024-04-22T10:02:38.791Z,1.45
2024-04-22T10:05:14.945Z,2.00
2024-04-22T10:07:42.351Z,2.40
2024-04-22T10:10:10.777Z,2.45
2024-04-22T10:12:38.404Z,1.67
2024-04-22T10:15:23.636Z,1.60
2024-04-22T10:17:50.679Z,3.88
2024-04-22T10:20:18.817Z,5.97
2024-04-22T10:22:46.130Z,3.65
2024-04-22T10:25:19.738Z,3.33
2024-04-22T10:27:46.880Z,3.40
2024-04-22T10:30:13.873Z,4.32
2024-04-22T10:32:40.846Z,3.60
2024-04-22T10:35:07.844Z,2.97
2024-04-22T10:37:34.929Z,3.17
2024-04-22T10:40:01.890Z,3.13
2024-04-22T10:42:29.925Z,3.20
2024-04-22T10:44:56.976Z,3.13
2024-04-22T10:47:24.147Z,3.35
2024-04-22T10:49:51.339Z,2.72
2024-04-22T10:52:18.486Z,2.92
2024-04-22T10:54:46.877Z,3.25
2024-04-22T10:57:14.961Z,3.58
2024-04-22T10:59:42.062Z,2.47
2024-04-22T11:02:11.272Z,2.38
2024-04-22T11:04:41.753Z,2.08
2024-04-22T11:07:08.816Z,2.45
2024-04-22T11:09:36.123Z,3.38
2024-04-22T11:12:03.697Z,3.03
2024-04-22T11:14:33.808Z,2.78
2024-04-22T11:17:00.840Z,2.67
2024-04-22T11:19:28.161Z,2.17
2024-04-22T11:21:55.196Z,2.83
2024-04-22T11:24:22.517Z,2.42
2024-04-22T11:26:49.620Z,2.47
2024-04-22T11:29:16.721Z,2.33
2024-04-22T11:31:45.394Z,2.28
2024-04-22T11:34:12.768Z,3.07
2024-04-22T11:36:40.352Z,2.88
2024-04-22T11:39:13.198Z,2.47
2024-04-22T11:41:40.277Z,3.50
2024-04-22T11:44:07.883Z,3.13
2024-04-22T11:46:35.064Z,2.47
2024-04-22T11:49:02.034Z,2.08
2024-04-22T11:51:29.093Z,2.47
2024-04-22T11:53:56.007Z,2.53
2024-04-22T11:56:27.254Z,2.90
2024-04-22T11:58:54.257Z,2.25
2024-04-22T12:01:21.200Z,1.50
2024-04-22T12:03:48.289Z,2.05
2024-04-22T12:06:15.488Z,2.13
2024-04-22T12:08:42.446Z,3.20
2024-04-22T12:11:09.803Z,2.00
2024-04-22T12:13:36.776Z,2.95
2024-04-22T12:16:04.033Z,1.85
2024-04-22T12:18:31.037Z,2.83
2024-04-22T12:20:58.731Z,2.30
2024-04-22T12:23:25.805Z,2.92
2024-04-22T12:25:55.055Z,3.05
2024-04-22T12:28:22.694Z,2.92
2024-04-22T12:30:52.816Z,2.50
2024-04-22T12:33:20.302Z,4.70
2024-04-22T12:35:47.313Z,3.00
2024-04-22T12:38:14.214Z,2.80
2024-04-22T12:40:41.833Z,2.70
2024-04-22T12:43:11.785Z,3.50
2024-04-22T12:45:42.326Z,3.00
2024-04-22T12:48:38.982Z,3.03
2024-04-22T12:51:07.030Z,3.15
2024-04-22T12:53:34.004Z,2.28
2024-04-22T12:56:02.045Z,3.38
2024-04-22T12:58:29.978Z,2.58
2024-04-22T13:00:57.131Z,2.55
2024-04-22T13:03:24.172Z,2.17
2024-04-22T13:05:51.177Z,2.17
2024-04-22T13:08:18.155Z,2.60
2024-04-22T13:10:45.244Z,2.75
2024-04-22T13:13:12.306Z,2.70
2024-04-22T13:15:39.240Z,2.65
2024-04-22T13:18:06.430Z,2.60
2024-04-22T13:20:34.067Z,2.72
2024-04-22T13:23:01.049Z,3.22
2024-04-22T13:25:28.193Z,2.22
2024-04-22T13:27:56.199Z,6.45
2024-04-22T13:30:23.187Z,4.18
2024-04-22T13:32:52.345Z,9.40
2024-04-22T13:35:19.566Z,8.68
2024-04-22T13:37:46.972Z,8.23
2024-04-22T13:40:14.146Z,7.03
2024-04-22T13:42:45.590Z,6.18
2024-04-22T13:45:14.565Z,7.85
2024-04-22T13:47:41.577Z,5.78
2024-04-22T13:50:08.611Z,4.80
2024-04-22T13:52:35.680Z,6.68
2024-04-22T13:55:05.798Z,5.25
2024-04-22T13:57:39.023Z,5.55
2024-04-22T14:00:09.588Z,6.38
2024-04-22T14:02:38.475Z,5.97
2024-04-22T14:05:05.752Z,6.82
2024-04-22T14:07:32.887Z,5.45
2024-04-22T14:09:59.823Z,7.03
2024-04-22T14:12:26.812Z,5.18
2024-04-22T14:14:53.789Z,4.95
2024-04-22T14:17:21.679Z,6.63
2024-04-22T14:19:48.692Z,5.93
2024-04-22T14:22:15.725Z,4.82
2024-04-22T14:24:43.077Z,4.00
2024-04-22T14:27:10.005Z,4.85
2024-04-22T14:29:36.979Z,6.65
2024-04-22T14:32:05.334Z,5.65
2024-04-22T14:34:32.356Z,5.32
2024-04-22T14:36:59.279Z,5.40
2024-04-22T14:39:26.212Z,6.32
2024-04-22T14:41:53.114Z,4.90
2024-04-22T14:44:20.088Z,5.45
2024-04-22T14:46:47.075Z,8.35
2024-04-22T14:49:14.057Z,11.35
2024-04-22T14:51:41.010Z,8.07
2024-04-22T14:54:08.727Z,7.53
2024-04-22T14:56:35.799Z,9.23
2024-04-22T14:59:05.636Z,7.40
2024-04-22T15:01:34.201Z,7.32
2024-04-22T15:04:01.374Z,8.15
2024-04-22T15:06:28.390Z,6.55
2024-04-22T15:08:56.182Z,6.93
2024-04-22T15:11:25.437Z,6.78
2024-04-22T15:13:52.640Z,8.40
2024-04-22T15:16:21.237Z,6.25
2024-04-22T15:18:48.224Z,5.78
2024-04-22T15:21:15.593Z,5.35
2024-04-22T15:23:42.602Z,6.28
2024-04-22T15:26:09.538Z,7.93
2024-04-22T15:28:36.587Z,8.00
2024-04-22T15:31:06.350Z,6.38
2024-04-22T15:33:33.598Z,6.07
2024-04-22T15:36:01.614Z,6.10
2024-04-22T15:38:28.571Z,6.00
2024-04-22T15:40:56.142Z,6.75
2024-04-22T15:43:23.230Z,7.15
2024-04-22T15:45:50.169Z,7.65
2024-04-22T15:48:23.715Z,7.20
2024-04-22T15:50:51.531Z,6.95
2024-04-22T15:53:19.306Z,7.25
2024-04-22T15:55:57.469Z,6.07
2024-04-22T15:58:24.895Z,6.45
2024-04-22T16:00:53.189Z,6.05
2024-04-22T16:03:20.303Z,5.88
2024-04-22T16:05:47.580Z,7.32
2024-04-22T16:08:14.603Z,7.80
2024-04-22T16:10:44.553Z,6.43
2024-04-22T16:15:39.491Z,5.97
2024-04-22T16:18:08.761Z,5.55
2024-04-22T16:20:35.657Z,7.65
2024-04-22T16:23:05.676Z,6.22
2024-04-22T16:25:33.668Z,5.45
2024-04-22T16:28:00.847Z,7.05
2024-04-22T16:30:27.797Z,6.20
2024-04-22T16:32:55.002Z,5.70
2024-04-22T16:35:22.046Z,6.63
2024-04-22T16:37:49.264Z,9.90
2024-04-22T16:40:16.298Z,13.25
2024-04-22T16:42:43.282Z,7.55
2024-04-22T16:45:11.177Z,6.22
2024-04-22T16:47:38.507Z,7.00
2024-04-22T16:50:06.553Z,19.73
2024-04-22T16:52:34.776Z,18.75
2024-04-22T16:55:01.790Z,11.88
2024-04-22T16:57:28.801Z,12.15
2024-04-22T16:59:56.914Z,11.27
2024-04-22T17:02:24.358Z,35.70
2024-04-22T17:04:51.416Z,25.60
2024-04-22T17:07:18.366Z,15.82
2024-04-22T17:09:45.358Z,16.52
2024-04-22T17:12:12.268Z,12.50
2024-04-22T17:14:39.221Z,24.77
2024-04-22T17:17:08.241Z,11.38
2024-04-22T17:19:35.874Z,11.23
2024-04-22T17:22:02.895Z,10.38
2024-04-22T17:24:29.836Z,9.20
2024-04-22T17:26:59.588Z,13.43
2024-04-22T17:29:26.991Z,18.48
2024-04-22T17:31:54.097Z,13.75
2024-04-22T17:34:21.085Z,11.13
2024-04-22T17:36:47.972Z,18.40
2024-04-22T17:39:15.321Z,22.48
2024-04-22T17:41:42.302Z,11.73
2024-04-22T17:44:09.321Z,12.65
2024-04-22T17:46:36.242Z,27.35
2024-04-22T17:49:06.524Z,11.38
2024-04-22T17:51:36.870Z,12.80
2024-04-22T17:54:03.954Z,15.13
2024-04-22T17:56:33.456Z,10.48
2024-04-22T17:59:00.777Z,9.50
2024-04-22T18:01:27.769Z,16.15
2024-04-22T18:03:54.751Z,8.07
2024-04-22T18:06:21.815Z,8.98
2024-04-22T18:08:49.600Z,8.02
2024-04-22T18:11:17.018Z,9.20
2024-04-22T18:13:44.186Z,7.90
2024-04-22T18:16:11.167Z,8.25
2024-04-22T18:18:38.166Z,7.10
2024-04-22T18:21:06.965Z,8.55
2024-04-22T18:23:34.141Z,7.88
2024-04-22T18:26:09.254Z,8.68
2024-04-22T18:28:40.503Z,8.88
2024-04-22T18:31:07.610Z,8.00
2024-04-22T18:33:34.856Z,7.85
2024-04-22T18:36:01.909Z,7.25
2024-04-22T18:38:29.367Z,7.20
2024-04-22T18:40:56.385Z,8.98
2024-04-22T18:43:23.440Z,8.30
2024-04-22T18:45:50.444Z,8.18
2024-04-22T18:48:17.474Z,8.13
2024-04-22T18:50:44.616Z,8.30
2024-04-22T18:53:12.170Z,7.63
2024-04-22T18:55:39.174Z,8.50
2024-04-22T18:58:06.884Z,8.98
2024-04-22T19:00:34.013Z,8.57
2024-04-22T19:03:01.008Z,8.98
2024-04-22T19:05:27.977Z,10.07
2024-04-22T19:07:55.066Z,10.98
2024-04-22T19:10:23.048Z,10.27
2024-04-22T19:12:51.403Z,11.43
2024-04-22T19:15:18.962Z,10.73
2024-04-22T19:17:46.121Z,9.57
2024-04-22T19:20:13.575Z,9.57
2024-04-22T19:22:40.743Z,9.20
2024-04-22T19:25:09.099Z,12.30
2024-04-22T19:27:36.077Z,8.38
2024-04-22T19:30:03.197Z,9.70
2024-04-22T19:32:30.672Z,10.20
2024-04-22T19:34:57.784Z,9.80
2024-04-22T19:37:24.853Z,9.20
2024-04-22T19:39:51.774Z,10.02
2024-04-22T19:42:18.755Z,8.07
2024-04-22T19:44:45.756Z,8.32
2024-04-22T19:47:12.939Z,9.25
2024-04-22T19:49:39.953Z,9.00
2024-04-22T19:52:08.135Z,8.38
2024-04-22T19:54:35.112Z,7.75
2024-04-22T19:57:02.028Z,7.45
2024-04-22T19:59:28.958Z,7.60
2024-04-22T20:01:55.965Z,7.63
2024-04-22T20:04:23.136Z,7.78
2024-04-22T20:06:50.158Z,6.18
2024-04-22T20:09:17.066Z,7.07
2024-04-22T20:11:44.074Z,7.00
2024-04-22T20:14:11.119Z,6.68
2024-04-22T20:16:49.429Z,6.00
2024-04-22T20:19:20.266Z,5.55
2024-04-22T20:21:47.462Z,6.47
2024-04-22T20:24:18.280Z,7.05
2024-04-22T20:26:45.355Z,6.65
2024-04-22T20:29:12.285Z,5.38
2024-04-22T20:31:39.414Z,6.88
2024-04-22T20:34:06.472Z,7.05
2024-04-22T20:36:33.467Z,7.22
2024-04-22T20:39:00.418Z,6.70
2024-04-22T20:41:27.373Z,7.30
2024-04-22T20:44:00.318Z,7.05
2024-04-22T20:46:27.432Z,6.90
2024-04-22T20:48:54.600Z,7.72
2024-04-22T20:51:21.672Z,7.35
2024-04-22T20:53:48.632Z,6.28
2024-04-22T20:56:15.558Z,6.18
2024-04-22T20:58:42.506Z,7.03
2024-04-22T21:01:10.605Z,6.28
2024-04-22T21:03:37.676Z,6.80
2024-04-22T21:06:05.808Z,7.13
2024-04-22T21:08:34.039Z,6.32
2024-04-22T21:11:03.341Z,7.10
2024-04-22T21:13:41.659Z,7.50
2024-04-22T21:16:10.178Z,7.95
2024-04-22T21:18:37.697Z,7.35
2024-04-22T21:21:05.058Z,6.50
2024-04-22T21:23:32.710Z,7.35
2024-04-22T21:25:59.770Z,6.57
2024-04-22T21:28:26.721Z,7.95
2024-04-22T21:30:53.651Z,6.63
2024-04-22T21:33:35.334Z,5.57
2024-04-22T21:36:07.675Z,7.00
2024-04-22T21:38:34.630Z,7.63
2024-04-22T21:41:01.548Z,6.82
2024-04-22T21:43:28.574Z,7.30
2024-04-22T21:45:55.674Z,8.05
2024-04-22T21:48:25.111Z,7.10
2024-04-22T21:50:53.028Z,7.43
2024-04-22T21:53:23.479Z,7.07
2024-04-22T21:55:51.798Z,7.43
2024-04-22T21:58:56.500Z,6.47
2024-04-22T22:02:01.516Z,5.65
2024-04-22T22:05:06.430Z,7.10
2024-04-22T22:07:33.331Z,6.78
2024-04-22T22:10:00.547Z,8.13
2024-04-22T22:12:27.475Z,6.00
2024-04-22T22:14:54.459Z,7.80
2024-04-22T22:17:21.603Z,7.18
2024-04-22T22:19:50.603Z,6.85
2024-04-22T22:22:18.357Z,7.13
2024-04-22T22:24:46.361Z,7.65
2024-04-22T22:27:15.220Z,8.07
2024-04-22T22:29:42.914Z,8.93
2024-04-22T22:32:10.580Z,8.90
2024-04-22T22:34:37.881Z,7.93
2024-04-22T22:37:06.715Z,8.52
2024-04-22T22:39:34.807Z,8.73
2024-04-22T22:42:02.250Z,10.45
2024-04-22T22:44:29.139Z,8.68
2024-04-22T22:47:06.719Z,8.30
2024-04-22T22:49:34.087Z,7.82
2024-04-22T22:52:01.146Z,9.57
2024-04-22T22:54:28.104Z,7.88
2024-04-22T22:56:56.768Z,7.13
2024-04-22T22:59:23.789Z,6.45
2024-04-22T23:01:55.193Z,8.77
2024-04-22T23:04:22.554Z,8.75
2024-04-22T23:06:49.554Z,8.48
2024-04-22T23:09:16.486Z,8.00
2024-04-22T23:11:43.424Z,7.90
2024-04-22T23:14:10.387Z,7.55
2024-04-22T23:16:37.527Z,8.88
2024-04-22T23:19:04.446Z,6.95
2024-04-22T23:21:31.343Z,6.20
2024-04-22T23:23:58.370Z,7.00
2024-04-22T23:26:25.327Z,7.15
2024-04-22T23:28:52.524Z,7.82
2024-04-22T23:31:19.667Z,7.78
2024-04-22T23:33:46.649Z,7.88
2024-04-22T23:36:13.660Z,8.43
2024-04-22T23:38:40.629Z,8.30
2024-04-22T23:41:07.592Z,9.35
2024-04-22T23:43:34.671Z,9.73
2024-04-22T23:46:01.660Z,9.82
2024-04-22T23:48:28.568Z,9.38
2024-04-22T23:50:55.637Z,9.57
2024-04-22T23:53:22.574Z,10.90
2024-04-22T23:55:49.506Z,11.88
2024-04-22T23:58:16.425Z,10.75
